Time;durP1;ratioP1;P1;durP2;ratioP2;P2;SDS_P1;SDS_P2;PMS_P1;PMS_P2;Temp;Humidity;BMP_temperature;BMP_pressure;BME280_temperature;BME280_humidity;BME280_pressure;Samples;Min_cycle;Max_cycle;Signal;HPM_P1;HPM_P2
2022/10/13 00:01:11;;;;;;;9.30;7.93;;;;;;;;;;5006703;28;20022;-43
2022/10/13 00:03:38;;;;;;;13.00;8.20;;;;;;;;;;5005355;28;20033;-43
2022/10/13 00:06:06;;;;;;;10.38;8.18;;;;;;;;;;5009523;28;20099;-43
2022/10/13 00:08:32;;;;;;;14.02;8.27;;;;;;;;;;5010101;28;20064;-43
2022/10/13 00:10:59;;;;;;;10.45;8.48;;;;;;;;;;5010053;28;20477;-42
2022/10/13 00:13:25;;;;;;;15.07;8.70;;;;;;;;;;5009943;28;20042;-48
2022/10/13 00:15:51;;;;;;;16.30;9.13;;;;;;;;;;5008761;28;20661;-43
2022/10/13 00:18:17;;;;;;;11.52;8.45;;;;;;;;;;5009181;28;20050;-46
2022/10/13 00:20:48;;;;;;;14.68;8.48;;;;;;;;;;5009816;28;20030;-42
2022/10/13 00:23:14;;;;;;;10.57;8.15;;;;;;;;;;5005449;28;20141;-44
2022/10/13 00:25:46;;;;;;;8.82;7.93;;;;;;;;;;5009012;28;20049;-44
2022/10/13 00:28:12;;;;;;;9.75;7.88;;;;;;;;;;5005350;28;20046;-44
2022/10/13 00:30:38;;;;;;;11.23;7.32;;;;;;;;;;5011562;28;20706;-45
2022/10/13 00:33:04;;;;;;;10.95;8.13;;;;;;;;;;5008161;28;20181;-43
2022/10/13 00:35:29;;;;;;;9.93;8.43;;;;;;;;;;5010670;28;20097;-43
2022/10/13 00:37:55;;;;;;;14.45;9.10;;;;;;;;;;5007435;28;20609;-44
2022/10/13 00:40:20;;;;;;;16.15;9.02;;;;;;;;;;5011135;28;20038;-43
2022/10/13 00:42:46;;;;;;;15.30;8.07;;;;;;;;;;5004412;28;20387;-46
2022/10/13 00:45:22;;;;;;;10.32;8.57;;;;;;;;;;5010697;28;20052;-48
2022/10/13 00:47:51;;;;;;;12.90;8.18;;;;;;;;;;5010497;28;20041;-45
2022/10/13 00:50:22;;;;;;;16.58;8.90;;;;;;;;;;5009915;28;20112;-44
2022/10/13 00:52:50;;;;;;;15.95;9.38;;;;;;;;;;5006011;28;20068;-43
2022/10/13 00:55:19;;;;;;;13.68;8.18;;;;;;;;;;5010559;28;20053;-42
2022/10/13 00:57:47;;;;;;;13.10;8.82;;;;;;;;;;5010038;28;20038;-42
2022/10/13 01:00:13;;;;;;;11.23;8.48;;;;;;;;;;5010863;28;20018;-43
2022/10/13 01:02:38;;;;;;;11.70;7.93;;;;;;;;;;5009050;28;20045;-43
2022/10/13 01:05:06;;;;;;;12.00;8.27;;;;;;;;;;5008218;28;20022;-44
2022/10/13 01:07:33;;;;;;;14.27;8.90;;;;;;;;;;5009285;28;20521;-43
2022/10/13 01:10:01;;;;;;;12.88;8.55;;;;;;;;;;5009937;28;20075;-46
2022/10/13 01:12:35;;;;;;;21.42;9.35;;;;;;;;;;5007653;28;20037;-43
2022/10/13 01:15:21;;;;;;;9.85;8.38;;;;;;;;;;5009846;28;20029;-45
2022/10/13 01:18:04;;;;;;;11.07;8.93;;;;;;;;;;5009140;28;20445;-42
2022/10/13 01:20:38;;;;;;;18.92;9.45;;;;;;;;;;5003659;28;20623;-43
2022/10/13 01:23:11;;;;;;;9.65;8.65;;;;;;;;;;5006700;28;20784;-42
2022/10/13 01:25:55;;;;;;;12.40;9.20;;;;;;;;;;5010667;28;20029;-44
2022/10/13 01:28:31;;;;;;;10.82;8.18;;;;;;;;;;5008824;28;20037;-43
2022/10/13 01:31:11;;;;;;;12.75;8.30;;;;;;;;;;5010371;28;20421;-43
2022/10/13 01:33:43;;;;;;;11.88;8.10;;;;;;;;;;5008265;28;20080;-43
2022/10/13 01:36:17;;;;;;;10.85;8.18;;;;;;;;;;5006819;28;20056;-43
2022/10/13 01:38:49;;;;;;;13.02;9.15;;;;;;;;;;5007980;28;20084;-47
2022/10/13 01:41:40;;;;;;;11.15;8.90;;;;;;;;;;5008848;28;20050;-43
2022/10/13 01:44:28;;;;;;;14.93;8.95;;;;;;;;;;5009694;28;20101;-42
2022/10/13 01:46:55;;;;;;;15.38;8.27;;;;;;;;;;5009375;28;20088;-44
2022/10/13 01:49:25;;;;;;;12.77;9.00;;;;;;;;;;5009635;28;20826;-45
2022/10/13 01:51:53;;;;;;;9.70;7.65;;;;;;;;;;5007663;28;20065;-44
2022/10/13 01:54:18;;;;;;;9.50;8.52;;;;;;;;;;5007942;28;20030;-43
2022/10/13 01:56:54;;;;;;;15.73;9.45;;;;;;;;;;5006385;28;20050;-44
2022/10/13 01:59:23;;;;;;;14.98;8.07;;;;;;;;;;5007199;28;20045;-43
2022/10/13 02:02:17;;;;;;;12.40;8.57;;;;;;;;;;5008417;28;20088;-43
2022/10/13 02:05:06;;;;;;;10.88;8.48;;;;;;;;;;5008562;28;20029;-43
2022/10/13 02:07:58;;;;;;;9.45;8.52;;;;;;;;;;5006474;28;20041;-43
2022/10/13 02:10:50;;;;;;;12.73;8.55;;;;;;;;;;5003534;28;20040;-46
2022/10/13 02:13:21;;;;;;;12.73;9.02;;;;;;;;;;5006855;28;20041;-42
2022/10/13 02:15:49;;;;;;;9.85;8.27;;;;;;;;;;5008517;28;20123;-43
2022/10/13 02:18:19;;;;;;;10.90;8.95;;;;;;;;;;5006529;28;20372;-44
2022/10/13 02:20:44;;;;;;;12.63;8.45;;;;;;;;;;5008016;28;20029;-42
2022/10/13 02:23:13;;;;;;;9.57;8.57;;;;;;;;;;5007117;28;20049;-44
2022/10/13 02:25:40;;;;;;;12.93;9.23;;;;;;;;;;5009824;28;20072;-44
2022/10/13 02:28:07;;;;;;;9.77;8.45;;;;;;;;;;5005722;28;20647;-45
2022/10/13 02:30:32;;;;;;;13.52;8.98;;;;;;;;;;5009210;28;20134;-42
2022/10/13 02:33:02;;;;;;;14.15;8.85;;;;;;;;;;5005328;28;20443;-43
2022/10/13 02:35:29;;;;;;;14.40;8.90;;;;;;;;;;5007162;28;20033;-42
2022/10/13 02:37:55;;;;;;;11.38;8.63;;;;;;;;;;5007183;28;20104;-42
2022/10/13 02:40:21;;;;;;;14.23;8.45;;;;;;;;;;5008713;28;20049;-45
2022/10/13 02:42:46;;;;;;;9.77;8.10;;;;;;;;;;5006828;28;20054;-42
2022/10/13 02:45:11;;;;;;;10.52;8.23;;;;;;;;;;5005719;28;20026;-43
2022/10/13 02:47:37;;;;;;;14.18;8.88;;;;;;;;;;5007248;28;20034;-43
2022/10/13 02:50:03;;;;;;;10.45;9.15;;;;;;;;;;5008218;28;20490;-42
2022/10/13 02:52:29;;;;;;;16.00;8.45;;;;;;;;;;5007204;28;20380;-42
2022/10/13 02:54:54;;;;;;;11.48;8.32;;;;;;;;;;5007822;28;20083;-42
2022/10/13 02:57:19;;;;;;;11.75;8.57;;;;;;;;;;5008354;28;20045;-44
2022/10/13 02:59:45;;;;;;;9.43;8.18;;;;;;;;;;5007789;28;20112;-43
2022/10/13 03:02:10;;;;;;;10.07;8.30;;;;;;;;;;5008157;28;20050;-46
2022/10/13 03:04:35;;;;;;;11.07;8.88;;;;;;;;;;5006626;28;20497;-45
2022/10/13 03:07:01;;;;;;;20.00;8.82;;;;;;;;;;5006960;28;20049;-47
2022/10/13 03:09:26;;;;;;;14.68;9.40;;;;;;;;;;5005059;28;20065;-45
2022/10/13 03:11:52;;;;;;;14.18;8.55;;;;;;;;;;5008105;28;20049;-43
2022/10/13 03:14:17;;;;;;;13.07;8.27;;;;;;;;;;5006566;28;20029;-43
2022/10/13 03:16:42;;;;;;;12.77;8.40;;;;;;;;;;5005818;28;20504;-42
2022/10/13 03:19:08;;;;;;;11.15;8.07;;;;;;;;;;5007536;28;20041;-42
2022/10/13 03:21:33;;;;;;;9.95;8.10;;;;;;;;;;5006750;28;20022;-44
2022/10/13 03:23:59;;;;;;;8.70;7.80;;;;;;;;;;5007977;28;20034;-45
2022/10/13 03:26:24;;;;;;;10.25;7.70;;;;;;;;;;5006489;28;20080;-43
2022/10/13 03:28:50;;;;;;;11.75;7.88;;;;;;;;;;5007677;28;20033;-44
2022/10/13 03:31:17;;;;;;;9.93;7.80;;;;;;;;;;5007758;28;20034;-43
2022/10/13 03:33:43;;;;;;;12.50;7.85;;;;;;;;;;5003532;28;20064;-42
2022/10/13 03:36:10;;;;;;;9.88;7.50;;;;;;;;;;5008026;28;20030;-43
2022/10/13 03:38:35;;;;;;;10.77;6.93;;;;;;;;;;5007280;28;20052;-42
2022/10/13 03:41:10;;;;;;;7.80;7.03;;;;;;;;;;5010916;28;20515;-42
2022/10/13 03:43:36;;;;;;;8.65;6.93;;;;;;;;;;5010877;28;20049;-45
2022/10/13 03:46:03;;;;;;;10.15;7.40;;;;;;;;;;5011559;28;20030;-42
2022/10/13 03:48:29;;;;;;;8.55;7.30;;;;;;;;;;5012350;28;20045;-42
2022/10/13 03:50:55;;;;;;;15.27;7.57;;;;;;;;;;5010017;28;20018;-42
2022/10/13 03:53:21;;;;;;;10.77;7.28;;;;;;;;;;5012090;28;20518;-44
2022/10/13 03:55:53;;;;;;;7.78;7.00;;;;;;;;;;5007691;28;20037;-45
2022/10/13 03:58:20;;;;;;;12.95;7.32;;;;;;;;;;5011002;28;20070;-45
2022/10/13 04:00:45;;;;;;;7.65;6.95;;;;;;;;;;5010713;28;20042;-48
2022/10/13 04:03:11;;;;;;;9.35;6.88;;;;;;;;;;5010472;28;20046;-43
2022/10/13 04:05:37;;;;;;;13.32;7.40;;;;;;;;;;5010390;28;20033;-49
2022/10/13 04:08:03;;;;;;;8.70;6.82;;;;;;;;;;5009567;28;20446;-45
2022/10/13 04:10:28;;;;;;;10.32;7.25;;;;;;;;;;5011213;28;20022;-46
2022/10/13 04:12:53;;;;;;;15.70;7.20;;;;;;;;;;5009678;28;20052;-45
2022/10/13 04:15:19;;;;;;;8.25;7.07;;;;;;;;;;5006041;28;20038;-42
2022/10/13 04:17:44;;;;;;;11.55;6.88;;;;;;;;;;5006241;28;20029;-42
2022/10/13 04:20:10;;;;;;;11.38;6.53;;;;;;;;;;5007783;28;20029;-43
2022/10/13 04:22:36;;;;;;;7.03;6.43;;;;;;;;;;5009711;28;20525;-43
2022/10/13 04:25:01;;;;;;;7.68;6.90;;;;;;;;;;5004626;28;20061;-44
2022/10/13 04:27:26;;;;;;;9.10;6.50;;;;;;;;;;5002872;28;20088;-44
2022/10/13 04:29:52;;;;;;;9.55;6.80;;;;;;;;;;5006517;28;20104;-44
2022/10/13 04:32:17;;;;;;;6.70;6.10;;;;;;;;;;5007247;28;20042;-44
2022/10/13 04:34:43;;;;;;;8.43;6.97;;;;;;;;;;5007409;28;20080;-46
2022/10/13 04:37:08;;;;;;;7.47;6.65;;;;;;;;;;5005062;28;20510;-44
2022/10/13 04:39:34;;;;;;;8.50;6.45;;;;;;;;;;5008342;28;20022;-42
2022/10/13 04:41:59;;;;;;;13.18;6.72;;;;;;;;;;5008073;28;20050;-43
2022/10/13 04:44:24;;;;;;;8.20;5.82;;;;;;;;;;5011680;28;20486;-46
2022/10/13 04:46:50;;;;;;;9.50;6.22;;;;;;;;;;5008338;28;20046;-42
2022/10/13 04:49:16;;;;;;;8.73;6.28;;;;;;;;;;5010816;28;20057;-44
2022/10/13 04:51:41;;;;;;;11.05;6.25;;;;;;;;;;5007677;28;20053;-44
2022/10/13 04:54:07;;;;;;;8.02;6.15;;;;;;;;;;5009790;28;20105;-43
2022/10/13 04:56:32;;;;;;;8.30;5.75;;;;;;;;;;5008219;28;20033;-42
2022/10/13 04:58:58;;;;;;;7.10;5.85;;;;;;;;;;5009825;28;20036;-43
2022/10/13 05:01:24;;;;;;;8.38;6.75;;;;;;;;;;5008905;28;20121;-42
2022/10/13 05:03:54;;;;;;;9.15;6.38;;;;;;;;;;5005108;28;20133;-47
2022/10/13 05:06:23;;;;;;;6.60;5.90;;;;;;;;;;5002617;28;20449;-45
2022/10/13 05:08:49;;;;;;;9.27;6.18;;;;;;;;;;5005774;28;20038;-44
2022/10/13 05:11:16;;;;;;;10.60;6.85;;;;;;;;;;5005961;28;20038;-43
2022/10/13 05:13:42;;;;;;;7.65;5.82;;;;;;;;;;5009023;28;20036;-44
2022/10/13 05:16:12;;;;;;;8.98;6.32;;;;;;;;;;5007453;28;20038;-43
2022/10/13 05:18:38;;;;;;;10.20;6.07;;;;;;;;;;5004780;28;20052;-43
2022/10/13 05:21:12;;;;;;;10.15;6.60;;;;;;;;;;5006710;28;20393;-42
2022/10/13 05:23:39;;;;;;;11.73;7.03;;;;;;;;;;5007535;28;20096;-44
2022/10/13 05:26:07;;;;;;;9.27;6.45;;;;;;;;;;5006779;28;20061;-44
2022/10/13 05:28:33;;;;;;;9.75;6.25;;;;;;;;;;5009157;28;20061;-43
2022/10/13 05:31:12;;;;;;;9.80;6.35;;;;;;;;;;5005929;28;20014;-43
2022/10/13 05:33:37;;;;;;;11.32;6.57;;;;;;;;;;5001901;28;20050;-44
2022/10/13 05:36:15;;;;;;;16.08;6.38;;;;;;;;;;5006568;28;20028;-44
2022/10/13 05:38:40;;;;;;;13.07;6.25;;;;;;;;;;5002128;28;20053;-46
2022/10/13 05:41:08;;;;;;;7.45;6.30;;;;;;;;;;5007872;28;20403;-43
2022/10/13 05:43:34;;;;;;;9.95;6.63;;;;;;;;;;5004895;28;20034;-45
2022/10/13 05:46:00;;;;;;;8.52;6.45;;;;;;;;;;5003369;28;20034;-42
2022/10/13 05:48:26;;;;;;;9.02;6.13;;;;;;;;;;5003728;28;20042;-43
2022/10/13 05:50:52;;;;;;;10.30;6.10;;;;;;;;;;5002763;28;20026;-46
2022/10/13 05:53:18;;;;;;;10.95;6.30;;;;;;;;;;4998399;28;20157;-43
2022/10/13 05:55:44;;;;;;;11.38;6.22;;;;;;;;;;5006464;28;20121;-44
2022/10/13 05:58:10;;;;;;;11.07;6.40;;;;;;;;;;5006466;28;20069;-44
2022/10/13 06:00:35;;;;;;;10.23;6.60;;;;;;;;;;5001818;28;20026;-44
2022/10/13 06:03:09;;;;;;;10.88;5.95;;;;;;;;;;5006748;28;20096;-43
2022/10/13 06:05:35;;;;;;;10.07;5.90;;;;;;;;;;5006394;28;20034;-43
2022/10/13 06:08:00;;;;;;;10.80;6.47;;;;;;;;;;5006550;28;20044;-47
2022/10/13 06:10:27;;;;;;;9.07;5.82;;;;;;;;;;5008917;28;20014;-45
2022/10/13 06:12:52;;;;;;;7.95;5.75;;;;;;;;;;5006997;28;20050;-47
2022/10/13 06:15:17;;;;;;;11.07;5.82;;;;;;;;;;5003688;28;20080;-44
2022/10/13 06:17:43;;;;;;;12.35;5.90;;;;;;;;;;5003832;28;20042;-44
2022/10/13 06:20:09;;;;;;;10.38;5.60;;;;;;;;;;5007121;28;20042;-46
2022/10/13 06:22:37;;;;;;;14.02;5.90;;;;;;;;;;5008973;28;20052;-45
2022/10/13 06:25:03;;;;;;;8.35;5.78;;;;;;;;;;5007062;28;20029;-44
2022/10/13 06:27:30;;;;;;;12.38;5.72;;;;;;;;;;5017326;28;20129;-48
2022/10/13 06:29:55;;;;;;;7.07;5.47;;;;;;;;;;5004589;28;20029;-46
2022/10/13 06:32:21;;;;;;;10.23;5.72;;;;;;;;;;5007065;28;20045;-42
2022/10/13 06:34:46;;;;;;;11.43;5.40;;;;;;;;;;5006460;28;20033;-47
2022/10/13 06:37:11;;;;;;;12.60;5.50;;;;;;;;;;5008584;28;20041;-44
2022/10/13 06:39:37;;;;;;;7.75;5.60;;;;;;;;;;5006402;28;20145;-44
2022/10/13 06:42:03;;;;;;;12.88;6.00;;;;;;;;;;5007031;28;20038;-44
2022/10/13 06:44:30;;;;;;;8.50;6.18;;;;;;;;;;5006619;28;20037;-43
2022/10/13 06:46:56;;;;;;;6.60;5.55;;;;;;;;;;5006729;28;20406;-43
2022/10/13 06:49:22;;;;;;;10.75;5.53;;;;;;;;;;5008483;28;20121;-46
2022/10/13 06:51:48;;;;;;;7.35;5.40;;;;;;;;;;5008267;28;20042;-44
2022/10/13 06:54:14;;;;;;;6.50;5.43;;;;;;;;;;5008967;28;20689;-43
2022/10/13 06:56:39;;;;;;;9.80;6.07;;;;;;;;;;5003144;28;20059;-43
2022/10/13 06:59:04;;;;;;;9.93;5.57;;;;;;;;;;5008804;28;20113;-47
2022/10/13 07:01:30;;;;;;;7.13;5.70;;;;;;;;;;5005072;28;20033;-42
2022/10/13 07:03:55;;;;;;;7.13;5.70;;;;;;;;;;5003469;28;20022;-49
2022/10/13 07:06:20;;;;;;;9.57;6.00;;;;;;;;;;5005929;28;20118;-46
2022/10/13 07:08:46;;;;;;;8.48;5.78;;;;;;;;;;5008082;28;20525;-47
2022/10/13 07:11:13;;;;;;;13.73;5.38;;;;;;;;;;5007086;28;20033;-43
2022/10/13 07:13:40;;;;;;;11.15;5.50;;;;;;;;;;5002980;28;20045;-47
2022/10/13 07:16:06;;;;;;;5.70;5.13;;;;;;;;;;5011188;28;20091;-44
2022/10/13 07:18:31;;;;;;;6.00;5.45;;;;;;;;;;5004559;28;20201;-48
2022/10/13 07:20:58;;;;;;;9.88;5.40;;;;;;;;;;5027352;28;20021;-43
2022/10/13 07:23:24;;;;;;;12.35;5.30;;;;;;;;;;5012446;28;20034;-44
2022/10/13 07:25:49;;;;;;;7.57;5.53;;;;;;;;;;5007307;28;20030;-43
2022/10/13 07:28:15;;;;;;;14.00;5.38;;;;;;;;;;5011677;28;20121;-44
2022/10/13 07:30:40;;;;;;;9.80;5.20;;;;;;;;;;5012269;28;20025;-42
2022/10/13 07:33:06;;;;;;;7.18;5.53;;;;;;;;;;5009490;28;20556;-42
2022/10/13 07:35:31;;;;;;;7.18;5.55;;;;;;;;;;5011386;28;20512;-43
2022/10/13 07:37:57;;;;;;;8.00;5.80;;;;;;;;;;5011989;28;20514;-47
2022/10/13 07:40:23;;;;;;;52.35;8.45;;;;;;;;;;5011059;28;20079;-45
2022/10/13 07:42:48;;;;;;;28.50;6.70;;;;;;;;;;5011655;28;20120;-44
2022/10/13 07:45:15;;;;;;;43.13;8.32;;;;;;;;;;5010749;28;20038;-44
2022/10/13 07:47:40;;;;;;;29.45;7.68;;;;;;;;;;5010920;28;20046;-43
2022/10/13 07:50:06;;;;;;;16.27;5.72;;;;;;;;;;5010487;28;20032;-48
2022/10/13 07:52:34;;;;;;;9.52;5.00;;;;;;;;;;5009030;28;20045;-49
2022/10/13 07:55:00;;;;;;;39.90;7.00;;;;;;;;;;5004852;28;20026;-48
2022/10/13 07:57:26;;;;;;;10.57;5.18;;;;;;;;;;5009869;28;20087;-47
2022/10/13 07:59:51;;;;;;;9.10;5.25;;;;;;;;;;5006909;28;20482;-46
2022/10/13 08:02:17;;;;;;;10.82;5.63;;;;;;;;;;5010005;28;20056;-45
2022/10/13 08:04:42;;;;;;;5.40;4.90;;;;;;;;;;5009176;28;20038;-45
2022/10/13 08:07:08;;;;;;;8.60;4.90;;;;;;;;;;5010823;28;20108;-45
2022/10/13 08:09:33;;;;;;;16.75;6.00;;;;;;;;;;5008281;28;20048;-45
2022/10/13 08:11:59;;;;;;;14.07;5.35;;;;;;;;;;5010732;28;20069;-43
2022/10/13 08:14:24;;;;;;;11.77;5.15;;;;;;;;;;5007338;28;20030;-44
2022/10/13 08:16:50;;;;;;;6.38;4.90;;;;;;;;;;5010681;28;20394;-43
2022/10/13 08:19:16;;;;;;;10.50;4.95;;;;;;;;;;5010157;28;20061;-43
2022/10/13 08:21:42;;;;;;;28.25;6.82;;;;;;;;;;5005041;28;20969;-47
2022/10/13 08:24:13;;;;;;;29.55;6.30;;;;;;;;;;5006249;28;20130;-46
2022/10/13 08:26:39;;;;;;;15.43;5.43;;;;;;;;;;5006594;28;20371;-45
2022/10/13 08:29:04;;;;;;;6.32;4.78;;;;;;;;;;5007591;28;20018;-43
2022/10/13 08:31:30;;;;;;;5.00;4.60;;;;;;;;;;5002327;28;20033;-42
2022/10/13 08:33:55;;;;;;;20.50;5.88;;;;;;;;;;5003348;28;20034;-45
2022/10/13 08:36:22;;;;;;;7.97;4.63;;;;;;;;;;5006214;28;20117;-44
2022/10/13 08:38:47;;;;;;;8.32;4.30;;;;;;;;;;5003991;28;20026;-48
2022/10/13 08:41:22;;;;;;;9.40;4.38;;;;;;;;;;5009868;28;20049;-46
2022/10/13 08:43:51;;;;;;;8.48;4.57;;;;;;;;;;5009443;28;20041;-48
2022/10/13 08:46:45;;;;;;;9.70;5.15;;;;;;;;;;5008371;28;20496;-46
2022/10/13 08:49:13;;;;;;;9.25;4.82;;;;;;;;;;5000608;28;20053;-45
2022/10/13 08:51:39;;;;;;;6.50;4.60;;;;;;;;;;5006452;28;20033;-44
2022/10/13 08:54:05;;;;;;;9.13;4.80;;;;;;;;;;5009879;28;20042;-47
2022/10/13 08:56:33;;;;;;;7.05;5.32;;;;;;;;;;5023205;28;20405;-43
2022/10/13 08:59:00;;;;;;;9.43;4.63;;;;;;;;;;5007902;28;20036;-44
2022/10/13 09:01:37;;;;;;;13.27;5.20;;;;;;;;;;5009250;28;20644;-43
2022/10/13 09:04:35;;;;;;;6.22;5.35;;;;;;;;;;4999557;28;20101;-43
2022/10/13 09:07:15;;;;;;;6.38;4.80;;;;;;;;;;5006606;28;20050;-43
2022/10/13 09:09:41;;;;;;;6.53;4.43;;;;;;;;;;5008715;28;20035;-43
2022/10/13 09:12:11;;;;;;;6.68;4.85;;;;;;;;;;5009387;28;20107;-43
2022/10/13 09:14:38;;;;;;;10.55;4.90;;;;;;;;;;5008019;28;20026;-43
2022/10/13 09:17:27;;;;;;;8.32;5.00;;;;;;;;;;5007484;28;20096;-42
2022/10/13 09:19:59;;;;;;;9.85;4.82;;;;;;;;;;5008380;28;20446;-43
2022/10/13 09:22:29;;;;;;;8.65;4.85;;;;;;;;;;5006101;28;20038;-43
2022/10/13 09:25:19;;;;;;;4.97;4.50;;;;;;;;;;5008651;28;20032;-44
2022/10/13 09:27:55;;;;;;;9.35;4.78;;;;;;;;;;5009495;28;20029;-47
2022/10/13 09:30:34;;;;;;;6.60;4.35;;;;;;;;;;5007070;28;20041;-44
2022/10/13 09:33:10;;;;;;;8.60;5.50;;;;;;;;;;5005171;28;20037;-45
2022/10/13 09:35:38;;;;;;;11.57;5.45;;;;;;;;;;5004053;28;20033;-43
2022/10/13 09:38:04;;;;;;;15.57;5.93;;;;;;;;;;5009868;28;20495;-43
2022/10/13 09:40:31;;;;;;;10.63;5.47;;;;;;;;;;5007792;28;20052;-45
2022/10/13 09:42:58;;;;;;;7.03;5.10;;;;;;;;;;5006372;28;20057;-43
2022/10/13 09:45:25;;;;;;;13.90;6.60;;;;;;;;;;5008146;28;20033;-44
2022/10/13 09:48:05;;;;;;;16.80;5.85;;;;;;;;;;5006153;28;20049;-46
2022/10/13 09:50:33;;;;;;;9.98;5.50;;;;;;;;;;5007596;28;20038;-45
2022/10/13 09:53:33;;;;;;;9.85;5.63;;;;;;;;;;5004098;28;20043;-43
2022/10/13 09:56:17;;;;;;;14.52;5.55;;;;;;;;;;5003952;28;20042;-45
2022/10/13 09:59:04;;;;;;;25.15;6.75;;;;;;;;;;5008782;28;20173;-45
2022/10/13 10:01:35;;;;;;;22.85;6.22;;;;;;;;;;5007711;28;20534;-44
2022/10/13 10:04:08;;;;;;;12.75;6.32;;;;;;;;;;5009694;28;20026;-47
2022/10/13 10:06:35;;;;;;;16.83;7.15;;;;;;;;;;5005413;28;20034;-46
2022/10/13 10:09:16;;;;;;;15.57;6.85;;;;;;;;;;5005150;28;20054;-42
2022/10/13 10:11:45;;;;;;;12.77;8.45;;;;;;;;;;5008558;28;20584;-46
2022/10/13 10:14:25;;;;;;;13.63;9.00;;;;;;;;;;5008068;28;20046;-44
2022/10/13 10:17:34;;;;;;;14.07;8.85;;;;;;;;;;5004925;28;20049;-44
2022/10/13 10:20:13;;;;;;;16.98;8.50;;;;;;;;;;5006575;28;20372;-42
2022/10/13 10:23:03;;;;;;;10.25;7.72;;;;;;;;;;5005751;28;20124;-43
2022/10/13 10:25:28;;;;;;;11.35;7.07;;;;;;;;;;4998228;28;20105;-43
2022/10/13 10:28:28;;;;;;;7.63;6.28;;;;;;;;;;5007140;28;20121;-46
2022/10/13 10:30:59;;;;;;;10.43;6.90;;;;;;;;;;5006665;28;20034;-43
2022/10/13 10:33:43;;;;;;;11.47;6.70;;;;;;;;;;5007608;28;20049;-44
2022/10/13 10:36:17;;;;;;;11.77;6.00;;;;;;;;;;5004575;28;20471;-43
2022/10/13 10:38:58;;;;;;;7.38;5.50;;;;;;;;;;5006862;28;20041;-45
2022/10/13 10:41:39;;;;;;;9.57;5.75;;;;;;;;;;5005247;28;20517;-43
2022/10/13 10:44:28;;;;;;;10.00;6.07;;;;;;;;;;5004719;28;20099;-46
2022/10/13 10:47:00;;;;;;;16.95;6.72;;;;;;;;;;5004510;28;20057;-43
2022/10/13 10:49:33;;;;;;;8.73;6.10;;;;;;;;;;5004135;28;20080;-43
2022/10/13 10:52:01;;;;;;;11.48;6.80;;;;;;;;;;5006746;28;20050;-43
2022/10/13 10:54:54;;;;;;;13.98;6.43;;;;;;;;;;5001720;28;20475;-44
2022/10/13 10:57:34;;;;;;;19.13;7.15;;;;;;;;;;5007322;28;20050;-42
2022/10/13 11:00:08;;;;;;;11.88;5.78;;;;;;;;;;5002313;28;20030;-43
2022/10/13 11:02:52;;;;;;;11.93;5.90;;;;;;;;;;5007123;28;20148;-43
2022/10/13 11:05:18;;;;;;;10.43;5.75;;;;;;;;;;5003254;28;20033;-44
2022/10/13 11:07:44;;;;;;;8.30;5.22;;;;;;;;;;5000431;28;20034;-46
2022/10/13 11:10:12;;;;;;;9.02;5.60;;;;;;;;;;5005877;28;20474;-47
2022/10/13 11:12:45;;;;;;;8.98;4.65;;;;;;;;;;5008295;28;20642;-43
2022/10/13 11:15:14;;;;;;;7.32;4.93;;;;;;;;;;5005453;28;20034;-45
2022/10/13 11:17:40;;;;;;;6.50;4.50;;;;;;;;;;5007196;28;20057;-42
2022/10/13 11:20:23;;;;;;;9.13;5.25;;;;;;;;;;5005989;28;20041;-43
2022/10/13 11:22:58;;;;;;;13.23;5.28;;;;;;;;;;5004569;28;20049;-43
2022/10/13 11:25:36;;;;;;;12.10;5.95;;;;;;;;;;5002422;28;20095;-43
2022/10/13 11:28:21;;;;;;;9.43;5.22;;;;;;;;;;5004167;28;20074;-45
2022/10/13 11:30:49;;;;;;;9.02;4.47;;;;;;;;;;5001843;28;20048;-45
2022/10/13 11:33:34;;;;;;;5.22;4.70;;;;;;;;;;5004105;28;23100;-44
2022/10/13 11:36:50;;;;;;;7.15;5.47;;;;;;;;;;5006913;28;20034;-44
2022/10/13 11:39:46;;;;;;;9.98;5.03;;;;;;;;;;5000253;28;20100;-43
2022/10/13 11:42:40;;;;;;;7.57;4.85;;;;;;;;;;5005212;28;20042;-46
2022/10/13 11:45:17;;;;;;;13.05;4.75;;;;;;;;;;4960965;28;20150;-45
2022/10/13 11:48:32;;;;;;;8.23;4.90;;;;;;;;;;4961975;28;20126;-43
2022/10/13 11:51:30;;;;;;;7.63;4.65;;;;;;;;;;4925145;29;20051;-44
2022/10/13 11:54:07;;;;;;;8.05;5.15;;;;;;;;;;4923287;29;20059;-43
2022/10/13 11:56:34;;;;;;;7.65;4.70;;;;;;;;;;4922396;29;20065;-44
2022/10/13 11:58:59;;;;;;;5.50;4.97;;;;;;;;;;4924037;29;20043;-44
2022/10/13 12:01:24;;;;;;;10.65;5.13;;;;;;;;;;4925082;29;20031;-43
2022/10/13 12:03:50;;;;;;;10.75;5.47;;;;;;;;;;4930771;29;20697;-43
2022/10/13 12:06:15;;;;;;;8.13;4.80;;;;;;;;;;4927602;29;20051;-44
2022/10/13 12:08:45;;;;;;;8.57;4.60;;;;;;;;;;4928687;29;20056;-44
2022/10/13 12:11:23;;;;;;;7.47;5.03;;;;;;;;;;4927739;29;20048;-43
2022/10/13 12:13:49;;;;;;;7.53;4.28;;;;;;;;;;4925896;29;20070;-43
2022/10/13 12:16:14;;;;;;;11.32;5.18;;;;;;;;;;4924303;29;20083;-44
2022/10/13 12:18:40;;;;;;;11.50;4.47;;;;;;;;;;4923737;29;20040;-44
2022/10/13 12:21:16;;;;;;;10.90;5.70;;;;;;;;;;4923427;29;20046;-43
2022/10/13 12:23:42;;;;;;;10.63;5.45;;;;;;;;;;4932720;28;20531;-43
2022/10/13 12:26:18;;;;;;;11.88;5.15;;;;;;;;;;4982676;28;20062;-43
2022/10/13 12:28:50;;;;;;;11.52;4.75;;;;;;;;;;4983221;28;20050;-43
2022/10/13 12:31:20;;;;;;;6.97;5.13;;;;;;;;;;5006483;28;20125;-43
2022/10/13 12:33:54;;;;;;;7.93;4.80;;;;;;;;;;5010314;28;20048;-42
2022/10/13 12:36:25;;;;;;;7.32;4.80;;;;;;;;;;5010168;28;20084;-43
2022/10/13 12:38:54;;;;;;;10.17;4.50;;;;;;;;;;5011914;28;20044;-43
2022/10/13 12:41:26;;;;;;;10.43;4.78;;;;;;;;;;5009952;28;20042;-43
2022/10/13 12:43:52;;;;;;;11.18;4.55;;;;;;;;;;5009457;28;20522;-43
2022/10/13 12:46:38;;;;;;;11.75;4.78;;;;;;;;;;5005691;28;20604;-43
2022/10/13 12:49:25;;;;;;;8.05;4.30;;;;;;;;;;5007319;28;20495;-45
2022/10/13 12:52:15;;;;;;;8.05;4.65;;;;;;;;;;5007038;28;20038;-43
2022/10/13 12:54:53;;;;;;;10.93;4.78;;;;;;;;;;5007086;28;20041;-43
2022/10/13 12:57:20;;;;;;;9.02;4.72;;;;;;;;;;5009035;28;20057;-43
2022/10/13 12:59:46;;;;;;;7.72;4.95;;;;;;;;;;5006333;28;20037;-43
2022/10/13 13:02:23;;;;;;;8.57;4.80;;;;;;;;;;5009268;28;20077;-45
2022/10/13 13:04:49;;;;;;;6.88;3.90;;;;;;;;;;5006724;28;20083;-43
2022/10/13 13:07:36;;;;;;;12.02;4.35;;;;;;;;;;5010435;28;20042;-43
2022/10/13 13:10:07;;;;;;;4.57;3.45;;;;;;;;;;5008383;28;20044;-43
2022/10/13 13:12:35;;;;;;;5.03;4.25;;;;;;;;;;5006028;28;20074;-42
2022/10/13 13:15:19;;;;;;;4.20;3.03;;;;;;;;;;5010083;28;20714;-43
2022/10/13 13:17:45;;;;;;;8.88;3.72;;;;;;;;;;5007891;28;20422;-43
2022/10/13 13:20:27;;;;;;;10.35;3.70;;;;;;;;;;5010673;28;20033;-43
2022/10/13 13:22:54;;;;;;;7.28;3.35;;;;;;;;;;5009165;28;20045;-43
2022/10/13 13:25:19;;;;;;;9.07;4.05;;;;;;;;;;5007992;28;20038;-44
2022/10/13 13:27:45;;;;;;;8.80;3.50;;;;;;;;;;5007465;28;20044;-43
2022/10/13 13:30:12;;;;;;;9.52;3.20;;;;;;;;;;5009762;28;20919;-43
2022/10/13 13:32:37;;;;;;;11.68;3.70;;;;;;;;;;5008808;28;20038;-43
2022/10/13 13:35:04;;;;;;;11.45;3.90;;;;;;;;;;5007979;28;20029;-43
2022/10/13 13:37:33;;;;;;;10.35;3.75;;;;;;;;;;5009218;28;20041;-43
2022/10/13 13:39:58;;;;;;;14.10;3.78;;;;;;;;;;5009523;28;20029;-43
2022/10/13 13:42:26;;;;;;;14.50;3.95;;;;;;;;;;5007818;28;20043;-43
2022/10/13 13:44:52;;;;;;;8.50;4.18;;;;;;;;;;5006491;28;20029;-43
2022/10/13 13:47:20;;;;;;;8.68;3.55;;;;;;;;;;5008879;28;20049;-43
2022/10/13 13:49:47;;;;;;;7.80;3.65;;;;;;;;;;5009343;28;20352;-43
2022/10/13 13:52:12;;;;;;;7.75;4.05;;;;;;;;;;5007620;28;20041;-43
2022/10/13 13:54:38;;;;;;;8.40;3.88;;;;;;;;;;5009933;28;20035;-43
2022/10/13 13:57:04;;;;;;;8.68;3.95;;;;;;;;;;5006257;28;20042;-43
2022/10/13 13:59:29;;;;;;;8.98;3.47;;;;;;;;;;5007603;28;20018;-43
2022/10/13 14:01:54;;;;;;;5.90;3.40;;;;;;;;;;5009675;28;20033;-43
2022/10/13 14:04:20;;;;;;;8.85;3.88;;;;;;;;;;5009359;28;20076;-43
2022/10/13 14:06:45;;;;;;;10.07;3.88;;;;;;;;;;5006791;28;20069;-44
2022/10/13 14:09:10;;;;;;;11.48;3.65;;;;;;;;;;4998609;28;20111;-43
2022/10/13 14:11:36;;;;;;;10.07;4.10;;;;;;;;;;5003992;28;20034;-47
2022/10/13 14:14:01;;;;;;;8.80;3.92;;;;;;;;;;5001522;28;20045;-44
2022/10/13 14:16:27;;;;;;;6.38;3.42;;;;;;;;;;4999065;28;20022;-47
2022/10/13 14:18:55;;;;;;;9.98;3.85;;;;;;;;;;5005472;28;20037;-44
2022/10/13 14:21:20;;;;;;;5.85;4.00;;;;;;;;;;5003604;28;20789;-44
2022/10/13 14:23:46;;;;;;;13.88;4.03;;;;;;;;;;5004222;28;20041;-44
2022/10/13 14:26:12;;;;;;;8.90;3.85;;;;;;;;;;5006002;28;20100;-43
2022/10/13 14:28:41;;;;;;;14.82;3.75;;;;;;;;;;5008156;28;20062;-46
2022/10/13 14:31:07;;;;;;;6.70;3.33;;;;;;;;;;5008640;28;20072;-43
2022/10/13 14:33:33;;;;;;;5.90;3.30;;;;;;;;;;5006053;28;20069;-45
2022/10/13 14:36:05;;;;;;;12.07;3.67;;;;;;;;;;5004364;28;20513;-46
2022/10/13 14:38:32;;;;;;;10.10;3.13;;;;;;;;;;5005245;28;20069;-45
2022/10/13 14:41:02;;;;;;;10.60;3.60;;;;;;;;;;5003153;28;20052;-44
2022/10/13 14:43:28;;;;;;;7.53;3.83;;;;;;;;;;5006010;28;20453;-45
2022/10/13 14:45:55;;;;;;;12.30;4.22;;;;;;;;;;4999595;28;20133;-43
2022/10/13 14:48:21;;;;;;;8.73;3.70;;;;;;;;;;5005377;28;20074;-43
2022/10/13 14:50:46;;;;;;;5.47;2.88;;;;;;;;;;5002780;28;20030;-44
2022/10/13 14:53:15;;;;;;;5.13;3.25;;;;;;;;;;5004065;28;20056;-43